Aérodrome :
LOGIN :

S'inscrire | Disclaimer

   EN    FR    IT 

 










Légende :    VFR   VFR Marginal   IFR   IFR Intensif   IFR Très Intensif
Visi : 
Plafond : 
>= 8 km
>= 3000ft
5 à 8 km
1000 à 3000 ft
1500m à 5 km
500 à 1000 ft
800 à 1500m
200 à 500 ft
< 800m
< 200 ft
Symboles :   Orages  Brouillard  Fortes neiges  Fortes précipitations  Vent > 20 kt
SIGMETs :   Divers  Orages  Givrage  Turbulence  Onde Orograph.  Cendres Volcan.







- Altitude de l'aérodrome : 32 ft
- Code IATA : LKZ


EGUL - RAF Lakenheath

DERNIER METAR :
  • 181156Z 15006KT 9999 CLR 03/M02 A3002 RMK AO2A SLP170 T00291018 10029 21027 58005 $

METARs EXPIRÉS :
  • 181056Z 17005KT 9999 CLR 02/M02 A3004 RMK AO2A SLP176 T00191024 $
  • 180956Z AUTO 14004KT 9999 CLR 00/M03 A3004 RMK AO2 SLP176 T00031029 $

TAF TAF EGUL
Valide du 18 à 12h jusqu'au 19 à 18h UTC


181205Z 1812/1918 16012KT 9999 SCT100 QNH2989INS
BECMG 1819/1820 14012G20KT 9999 BKN025 OVC070 610259 QNH2979INS
TEMPO 1820/1824 8000 -SHRASN BKN015
BECMG 1903/1904 14012G20KT 8000 -RASN BKN015 OVC070 610159 QNH2978INS
BECMG 1906/1907 15012G20KT 9999 NSW BKN007 OVC020 610109 QNH2975INS TX05/1816Z TN01/1908Z
Pas de NOTAMs connus pour ce terrain.



MET'MAP, la Météo Aéronautique d'un coup d'oeil ! - Copyright ORBIFLY Décembre 2007 - Disclaimer

ORBIFLY MET'MAP TEAM :

Programmation & Développement : Alexandra Zaïnal
Conception & Développement : Baudouin d'Aumeries
Co-Programmation & Développement : Marc-Olivier Méhu
Soutien technique & logistique : Manuel Goepfert

Contact : metmap@orbifly.com




SOURCES & CREDITS :

   NOAA